Time;durP1;ratioP1;P1;durP2;ratioP2;P2;SDS_P1;SDS_P2;PMS_P1;PMS_P2;Temp;Humidity;BMP_temperature;BMP_pressure;BME280_temperature;BME280_humidity;BME280_pressure;Samples;Min_cycle;Max_cycle;Signal;HPM_P1;HPM_P2
2021/04/30 00:01:47;;;;;;;34.83;19.80;;;7.70;99.90;;;;;;5049223;28;20494;-77
2021/04/30 00:04:32;;;;;;;37.97;21.87;;;7.70;99.90;;;;;;5048062;28;20210;-77
2021/04/30 00:07:17;;;;;;;33.27;21.13;;;7.70;99.90;;;;;;5046628;28;20199;-77
2021/04/30 00:10:02;;;;;;;39.00;21.47;;;7.70;99.90;;;;;;5047621;28;20323;-77
2021/04/30 00:12:48;;;;;;;42.87;21.93;;;7.80;99.90;;;;;;5048570;28;20202;-77
2021/04/30 00:15:33;;;;;;;35.53;22.73;;;7.80;99.90;;;;;;5048188;28;20199;-77
2021/04/30 00:18:18;;;;;;;43.40;24.17;;;7.80;99.90;;;;;;5047368;28;20226;-77
2021/04/30 00:21:04;;;;;;;36.93;22.53;;;7.80;99.90;;;;;;5048490;28;20237;-77
2021/04/30 00:23:53;;;;;;;29.57;18.50;;;7.80;99.90;;;;;;5049607;28;20599;-77
2021/04/30 00:26:37;;;;;;;36.77;22.93;;;7.80;99.90;;;;;;5046121;28;20211;-77
2021/04/30 00:29:22;;;;;;;45.40;23.37;;;7.80;99.90;;;;;;5048797;28;20250;-77
2021/04/30 00:32:07;;;;;;;36.23;22.87;;;7.80;99.90;;;;;;5047307;28;20616;-77
2021/04/30 00:34:52;;;;;;;47.00;23.97;;;7.80;99.90;;;;;;5044100;28;20210;-77
2021/04/30 00:37:38;;;;;;;40.70;22.23;;;7.80;99.90;;;;;;5047113;28;20442;-77
2021/04/30 00:40:24;;;;;;;38.67;21.90;;;7.90;99.90;;;;;;5046727;28;20230;-77
2021/04/30 00:43:09;;;;;;;33.63;21.97;;;7.90;99.90;;;;;;5045227;28;20261;-77
2021/04/30 00:45:54;;;;;;;40.00;21.63;;;7.90;99.90;;;;;;5045846;28;20250;-77
2021/04/30 00:48:39;;;;;;;35.67;21.83;;;7.90;99.90;;;;;;5046438;28;20197;-77
2021/04/30 00:51:24;;;;;;;38.33;21.27;;;7.90;99.90;;;;;;5042506;28;20285;-77
2021/04/30 00:54:09;;;;;;;30.27;20.07;;;7.90;99.90;;;;;;5049674;28;20237;-77
2021/04/30 00:56:55;;;;;;;34.40;20.70;;;7.90;99.90;;;;;;5046647;28;20210;-77
2021/04/30 00:59:40;;;;;;;42.20;22.37;;;7.90;99.90;;;;;;5045445;28;20319;-77
2021/04/30 01:02:25;;;;;;;37.70;22.47;;;7.90;99.90;;;;;;5048854;28;20297;-77
2021/04/30 01:05:11;;;;;;;36.37;21.90;;;7.90;99.90;;;;;;5048155;28;20326;-77
2021/04/30 01:07:56;;;;;;;37.13;21.37;;;7.90;99.90;;;;;;5050991;28;20210;-77
2021/04/30 01:10:41;;;;;;;35.63;22.97;;;8.00;99.90;;;;;;5049075;28;20265;-77
2021/04/30 01:13:26;;;;;;;40.33;21.27;;;8.00;99.90;;;;;;5050329;28;20234;-77
2021/04/30 01:16:11;;;;;;;38.93;21.40;;;8.00;99.90;;;;;;5049878;28;20211;-77
2021/04/30 01:18:56;;;;;;;38.50;20.27;;;8.00;99.90;;;;;;5062742;28;20198;-77
2021/04/30 01:21:41;;;;;;;33.67;20.10;;;8.00;99.90;;;;;;5072292;28;20206;-78
2021/04/30 01:24:27;;;;;;;34.43;20.20;;;8.00;99.90;;;;;;5050506;28;20242;-77
2021/04/30 01:27:11;;;;;;;41.97;19.80;;;8.00;99.90;;;;;;5049015;28;20299;-77
2021/04/30 01:29:56;;;;;;;32.03;19.93;;;8.10;99.90;;;;;;5047322;28;20636;-77
2021/04/30 01:32:41;;;;;;;31.70;20.00;;;8.10;99.90;;;;;;5049371;28;20202;-77
2021/04/30 01:35:30;;;;;;;29.73;18.43;;;8.10;99.90;;;;;;5045288;28;20203;-78
2021/04/30 01:38:15;;;;;;;36.67;19.27;;;8.10;99.90;;;;;;5048193;28;20626;-77
2021/04/30 01:41:01;;;;;;;34.37;20.83;;;8.10;99.90;;;;;;5052382;28;20227;-77
2021/04/30 01:43:46;;;;;;;35.47;18.10;;;8.10;99.90;;;;;;5055434;28;20265;-77
2021/04/30 01:46:30;;;;;;;44.10;19.80;;;8.10;99.90;;;;;;5052177;28;20223;-77
2021/04/30 01:49:15;;;;;;;30.27;18.00;;;8.20;99.90;;;;;;5047023;28;20216;-77
2021/04/30 01:52:00;;;;;;;31.80;18.63;;;8.20;99.90;;;;;;5049952;28;20246;-77
2021/04/30 01:54:48;;;;;;;33.03;17.97;;;8.20;99.90;;;;;;5045396;28;20388;-77
2021/04/30 01:57:36;;;;;;;31.80;17.77;;;8.20;99.90;;;;;;5048098;28;20198;-77
2021/04/30 02:00:23;;;;;;;31.87;17.53;;;8.20;99.90;;;;;;5046612;28;20787;-77
2021/04/30 02:03:08;;;;;;;44.53;17.40;;;8.20;99.90;;;;;;5046528;28;20341;-77
2021/04/30 02:05:54;;;;;;;36.37;18.63;;;8.20;99.90;;;;;;5046624;28;20207;-77
2021/04/30 02:08:39;;;;;;;36.20;17.63;;;8.20;99.90;;;;;;5044572;28;20218;-77
2021/04/30 02:11:24;;;;;;;41.47;18.93;;;8.20;99.90;;;;;;5046029;28;20243;-77
2021/04/30 02:14:09;;;;;;;32.20;18.67;;;8.20;99.90;;;;;;5047124;28;20275;-77
2021/04/30 02:16:54;;;;;;;37.27;18.00;;;8.20;99.90;;;;;;5046923;28;20203;-77
2021/04/30 02:19:39;;;;;;;29.10;17.93;;;8.30;99.90;;;;;;5046649;28;20721;-77
2021/04/30 02:22:24;;;;;;;38.90;18.50;;;8.30;99.90;;;;;;5049521;28;20214;-77
2021/04/30 02:25:11;;;;;;;39.40;18.77;;;8.30;99.90;;;;;;5048025;28;20684;-77
2021/04/30 02:27:58;;;;;;;33.13;18.03;;;8.30;99.90;;;;;;5049300;28;20215;-77
2021/04/30 02:30:44;;;;;;;31.97;17.97;;;8.30;99.90;;;;;;5048038;28;20230;-77
2021/04/30 02:33:29;;;;;;;30.70;16.77;;;8.30;99.90;;;;;;5047364;28;20210;-77
2021/04/30 02:36:14;;;;;;;34.13;17.60;;;8.30;99.90;;;;;;5050439;28;21125;-77
2021/04/30 02:38:58;;;;;;;27.10;16.90;;;8.30;99.90;;;;;;5049646;28;20712;-77
2021/04/30 02:41:43;;;;;;;29.27;18.00;;;8.30;99.90;;;;;;5048905;28;20852;-77
2021/04/30 02:44:28;;;;;;;29.80;17.57;;;8.30;99.90;;;;;;5049698;28;20222;-77
2021/04/30 02:47:13;;;;;;;35.07;16.67;;;8.30;99.90;;;;;;5050288;28;20345;-77
2021/04/30 02:50:00;;;;;;;28.77;16.60;;;8.30;99.90;;;;;;5043944;28;20258;-77
2021/04/30 02:52:45;;;;;;;31.70;17.40;;;8.30;99.90;;;;;;5050181;28;20558;-77
2021/04/30 02:55:30;;;;;;;29.80;17.60;;;8.30;99.90;;;;;;5048723;28;20253;-77
2021/04/30 02:58:15;;;;;;;34.03;17.00;;;8.40;99.90;;;;;;5050056;28;20206;-77
2021/04/30 03:01:00;;;;;;;29.90;17.43;;;8.30;99.90;;;;;;5049679;28;20229;-77
2021/04/30 03:03:45;;;;;;;38.10;18.30;;;8.30;99.90;;;;;;5048475;28;20218;-77
2021/04/30 03:06:30;;;;;;;30.73;17.87;;;8.40;99.90;;;;;;5048164;28;20249;-77
2021/04/30 03:09:16;;;;;;;33.27;17.43;;;8.40;99.90;;;;;;5048515;28;20321;-77
2021/04/30 03:12:01;;;;;;;37.23;18.97;;;8.40;99.90;;;;;;5048481;28;20203;-77
2021/04/30 03:14:46;;;;;;;35.70;18.83;;;8.40;99.90;;;;;;5048453;28;20226;-77
2021/04/30 03:17:31;;;;;;;36.60;19.13;;;8.40;99.90;;;;;;5048553;28;20226;-77
2021/04/30 03:20:17;;;;;;;28.90;15.97;;;8.40;99.90;;;;;;5048235;28;20234;-77
2021/04/30 03:23:02;;;;;;;34.33;17.77;;;8.40;99.90;;;;;;5046561;28;20619;-77
2021/04/30 03:25:47;;;;;;;31.17;17.00;;;8.40;99.90;;;;;;5048100;28;20218;-77
2021/04/30 03:28:32;;;;;;;36.80;18.03;;;8.40;99.90;;;;;;5049589;28;20203;-77
2021/04/30 03:31:17;;;;;;;32.33;17.80;;;8.40;99.90;;;;;;5044582;28;20265;-77
2021/04/30 03:34:02;;;;;;;30.40;17.63;;;8.40;99.90;;;;;;5043273;28;20198;-77
2021/04/30 03:36:48;;;;;;;30.80;16.97;;;8.40;99.90;;;;;;5048556;28;20415;-77
2021/04/30 03:39:33;;;;;;;35.27;16.63;;;8.40;99.90;;;;;;5047286;28;20264;-77
2021/04/30 03:42:18;;;;;;;29.50;16.27;;;8.40;99.90;;;;;;5046960;28;20222;-77
2021/04/30 03:45:03;;;;;;;30.67;16.70;;;8.50;99.90;;;;;;5048680;28;20214;-77
2021/04/30 03:47:48;;;;;;;28.50;16.47;;;8.50;99.90;;;;;;5047143;28;20209;-77
2021/04/30 03:50:33;;;;;;;27.90;16.47;;;8.50;99.90;;;;;;5048210;28;20242;-77
2021/04/30 03:53:18;;;;;;;36.47;17.40;;;8.50;99.90;;;;;;5053138;28;20210;-77
2021/04/30 03:56:04;;;;;;;31.77;16.23;;;8.50;99.90;;;;;;5050013;28;20241;-77
2021/04/30 03:58:49;;;;;;;37.73;18.07;;;8.50;99.90;;;;;;5045854;28;20211;-77
2021/04/30 04:01:34;;;;;;;29.33;17.03;;;8.50;99.90;;;;;;5050030;28;20319;-77
2021/04/30 04:04:19;;;;;;;33.50;16.60;;;8.50;99.90;;;;;;5049787;28;20210;-77
2021/04/30 04:07:03;;;;;;;31.67;17.77;;;8.50;99.90;;;;;;5050656;28;20214;-77
2021/04/30 04:09:49;;;;;;;30.57;16.80;;;8.50;99.90;;;;;;5055497;28;20404;-77
2021/04/30 04:12:33;;;;;;;36.70;15.80;;;8.50;99.90;;;;;;5049373;28;20562;-77
2021/04/30 04:15:18;;;;;;;29.07;16.20;;;8.50;99.90;;;;;;5049850;28;20298;-77
2021/04/30 04:18:03;;;;;;;33.13;16.03;;;8.60;99.90;;;;;;5061696;28;20209;-77
2021/04/30 04:20:48;;;;;;;28.33;15.73;;;8.50;99.90;;;;;;5074881;28;20391;-77
2021/04/30 04:23:33;;;;;;;30.37;15.17;;;8.50;99.90;;;;;;5057695;28;20279;-77
2021/04/30 04:26:18;;;;;;;28.03;16.07;;;8.60;99.90;;;;;;5050060;28;20265;-78
2021/04/30 04:29:03;;;;;;;28.40;14.83;;;8.60;99.90;;;;;;5052414;28;20278;-78
2021/04/30 04:31:48;;;;;;;33.47;16.37;;;8.60;99.90;;;;;;5048886;28;20425;-78
2021/04/30 04:34:33;;;;;;;36.97;17.13;;;8.60;99.90;;;;;;5042706;28;20304;-77
2021/04/30 04:37:18;;;;;;;29.90;16.70;;;8.60;99.90;;;;;;5044503;28;20237;-78
2021/04/30 04:40:04;;;;;;;32.97;16.90;;;8.60;99.90;;;;;;5047500;28;20426;-78
2021/04/30 04:42:50;;;;;;;32.30;17.77;;;8.60;99.90;;;;;;5042163;28;20283;-78
2021/04/30 04:45:34;;;;;;;38.70;17.90;;;8.60;99.90;;;;;;5044318;28;20214;-78
2021/04/30 04:48:19;;;;;;;38.23;17.43;;;8.60;99.90;;;;;;5046010;28;20664;-77
2021/04/30 04:51:04;;;;;;;30.00;16.17;;;8.60;99.90;;;;;;5045857;28;20258;-77
2021/04/30 04:53:49;;;;;;;32.73;16.83;;;8.60;99.90;;;;;;5045035;28;20673;-77
2021/04/30 04:56:34;;;;;;;31.83;16.93;;;8.60;99.90;;;;;;5044235;28;20202;-77
2021/04/30 04:59:19;;;;;;;34.10;18.50;;;8.70;99.90;;;;;;5044928;28;20215;-77
2021/04/30 05:02:04;;;;;;;42.60;19.67;;;8.70;99.90;;;;;;5043430;28;20218;-77
2021/04/30 05:04:49;;;;;;;34.13;18.30;;;8.60;99.90;;;;;;5047666;28;22112;-77
2021/04/30 05:07:34;;;;;;;34.13;18.27;;;8.70;99.90;;;;;;5047173;28;20565;-77
2021/04/30 05:10:19;;;;;;;37.20;18.87;;;8.70;99.90;;;;;;5047597;28;20234;-77
2021/04/30 05:13:04;;;;;;;40.80;19.90;;;8.70;99.90;;;;;;5048521;28;20202;-77
2021/04/30 05:15:49;;;;;;;44.67;19.80;;;8.70;99.90;;;;;;5042085;28;20258;-77
2021/04/30 05:18:34;;;;;;;37.97;19.97;;;8.70;99.90;;;;;;5043701;28;20213;-77
2021/04/30 05:21:19;;;;;;;40.30;19.53;;;8.80;99.90;;;;;;5044954;28;20249;-77
2021/04/30 05:24:05;;;;;;;37.73;20.27;;;8.80;99.90;;;;;;5043915;28;20565;-77
2021/04/30 05:26:51;;;;;;;45.47;21.87;;;8.80;99.90;;;;;;5046806;28;20329;-77
2021/04/30 05:29:38;;;;;;;51.20;22.87;;;8.80;99.90;;;;;;5043808;28;20230;-78
2021/04/30 05:32:24;;;;;;;42.90;20.87;;;8.80;99.90;;;;;;5047469;28;20711;-78
2021/04/30 05:35:12;;;;;;;43.83;21.70;;;8.90;99.90;;;;;;5044027;28;20306;-78
2021/04/30 05:37:57;;;;;;;40.37;20.73;;;8.90;99.90;;;;;;5048639;28;20226;-79
2021/04/30 05:40:42;;;;;;;44.07;22.03;;;8.90;99.90;;;;;;5054443;28;20269;-80
2021/04/30 05:43:26;;;;;;;40.33;19.63;;;9.00;99.90;;;;;;5063260;28;20284;-78
2021/04/30 05:46:12;;;;;;;36.03;20.87;;;9.00;99.90;;;;;;5064319;28;20704;-79
2021/04/30 05:48:57;;;;;;;35.40;21.03;;;9.00;99.90;;;;;;5070119;28;20217;-78
2021/04/30 05:51:42;;;;;;;46.10;22.83;;;9.10;99.90;;;;;;5065427;28;20210;-80
2021/04/30 05:54:30;;;;;;;39.57;22.03;;;9.10;99.90;;;;;;5067964;28;20210;-78
2021/04/30 05:57:16;;;;;;;41.03;21.47;;;9.20;99.90;;;;;;5066808;28;20244;-79
2021/04/30 06:00:01;;;;;;;39.47;20.97;;;9.20;99.90;;;;;;5058400;28;20273;-79
2021/04/30 06:02:46;;;;;;;45.63;23.77;;;9.20;99.90;;;;;;5056867;28;20619;-79
2021/04/30 06:05:33;;;;;;;38.73;22.53;;;9.20;99.90;;;;;;5058695;28;20238;-80
2021/04/30 06:08:18;;;;;;;39.20;22.17;;;9.30;99.90;;;;;;5060606;28;20614;-78
2021/04/30 06:11:02;;;;;;;44.47;22.87;;;9.30;99.90;;;;;;5056266;28;20233;-79
2021/04/30 06:13:47;;;;;;;40.70;23.73;;;9.30;99.90;;;;;;5054821;28;20206;-78
2021/04/30 06:16:32;;;;;;;42.03;23.33;;;9.30;99.90;;;;;;5053566;28;20212;-79
2021/04/30 06:19:17;;;;;;;43.60;23.93;;;9.30;99.90;;;;;;5056898;28;20246;-78
2021/04/30 06:22:03;;;;;;;44.30;23.50;;;9.40;99.90;;;;;;5052552;28;20214;-78
2021/04/30 06:24:48;;;;;;;44.67;25.03;;;9.40;99.90;;;;;;5053774;28;20336;-78
2021/04/30 06:27:33;;;;;;;35.83;20.53;;;9.30;99.90;;;;;;5051597;28;20206;-79
2021/04/30 06:30:18;;;;;;;38.07;21.53;;;9.40;99.90;;;;;;5056181;28;20285;-79
2021/04/30 06:33:02;;;;;;;37.07;21.60;;;9.40;99.90;;;;;;5053466;28;20203;-79
2021/04/30 06:35:47;;;;;;;43.87;23.33;;;9.40;99.90;;;;;;5053233;28;20218;-80
2021/04/30 06:38:33;;;;;;;44.07;21.73;;;9.40;99.90;;;;;;5054859;28;20261;-78
2021/04/30 06:41:18;;;;;;;40.87;23.30;;;9.40;99.90;;;;;;5048851;28;20272;-78
2021/04/30 06:44:04;;;;;;;36.70;22.60;;;9.40;99.90;;;;;;5050556;28;20245;-78
2021/04/30 06:46:49;;;;;;;36.77;23.93;;;9.40;99.90;;;;;;5050700;28;20280;-78
2021/04/30 06:49:33;;;;;;;38.93;23.07;;;9.40;99.90;;;;;;5051384;28;20246;-78
2021/04/30 06:52:18;;;;;;;36.97;24.97;;;9.40;99.90;;;;;;5052022;28;20278;-77
2021/04/30 06:55:05;;;;;;;46.73;25.50;;;9.40;99.90;;;;;;5052405;28;20211;-80
2021/04/30 06:57:50;;;;;;;39.50;25.03;;;9.50;99.90;;;;;;5053751;28;20211;-79
2021/04/30 07:00:36;;;;;;;47.57;25.73;;;9.50;99.90;;;;;;5053432;28;20311;-79
2021/04/30 07:03:20;;;;;;;46.17;27.03;;;9.50;99.90;;;;;;5060730;28;20230;-79
2021/04/30 07:06:05;;;;;;;43.90;27.50;;;9.60;99.90;;;;;;5057971;28;20215;-79
2021/04/30 07:08:51;;;;;;;51.87;28.40;;;9.60;99.90;;;;;;5056359;28;20217;-80
2021/04/30 07:11:37;;;;;;;48.13;29.60;;;9.70;99.90;;;;;;5050260;28;20334;-78
2021/04/30 07:14:21;;;;;;;50.37;33.13;;;9.80;99.90;;;;;;5052687;28;20214;-78
2021/04/30 07:17:06;;;;;;;48.87;27.30;;;9.90;99.90;;;;;;5068139;28;20202;-79
2021/04/30 07:19:51;;;;;;;45.87;28.00;;;10.10;99.90;;;;;;5077920;28;20602;-79
2021/04/30 07:22:36;;;;;;;40.67;25.37;;;10.30;99.90;;;;;;5053105;28;20633;-79
2021/04/30 07:25:21;;;;;;;36.30;24.87;;;10.40;99.90;;;;;;5053811;28;20214;-79
2021/04/30 07:28:06;;;;;;;33.50;23.87;;;10.60;99.90;;;;;;5058554;28;20264;-79
2021/04/30 07:30:51;;;;;;;31.47;22.40;;;10.80;99.90;;;;;;5057837;28;21507;-79
2021/04/30 07:33:37;;;;;;;32.00;21.37;;;11.00;99.90;;;;;;5052011;28;21621;-79
2021/04/30 07:36:22;;;;;;;41.20;23.40;;;11.10;99.90;;;;;;5050822;28;20203;-79
2021/04/30 07:39:07;;;;;;;34.83;24.50;;;11.30;99.90;;;;;;5054123;28;20670;-79
2021/04/30 07:41:53;;;;;;;33.37;22.50;;;11.40;99.90;;;;;;5047849;28;21544;-79
2021/04/30 07:44:40;;;;;;;36.50;24.07;;;11.60;99.90;;;;;;5052418;28;20281;-79
2021/04/30 07:47:25;;;;;;;35.80;22.53;;;11.70;99.90;;;;;;5046200;28;20403;-78
2021/04/30 07:50:10;;;;;;;33.20;21.63;;;11.80;99.90;;;;;;5046678;28;20242;-73
2021/04/30 07:52:55;;;;;;;35.83;24.50;;;11.90;99.90;;;;;;5043233;28;20208;-74
2021/04/30 07:55:39;;;;;;;33.10;21.43;;;12.00;99.90;;;;;;5050565;28;20687;-78
2021/04/30 07:58:26;;;;;;;32.90;22.37;;;12.10;99.90;;;;;;5050014;28;20384;-79
2021/04/30 08:01:12;;;;;;;32.43;23.53;;;12.20;99.90;;;;;;5044020;28;20658;-79
2021/04/30 08:03:58;;;;;;;33.67;23.63;;;12.30;99.90;;;;;;5045926;28;20745;-78
2021/04/30 08:06:42;;;;;;;27.40;21.80;;;12.30;99.90;;;;;;5047754;28;20207;-79
2021/04/30 08:09:27;;;;;;;29.00;21.27;;;12.30;99.90;;;;;;5045643;28;22034;-78
2021/04/30 08:12:12;;;;;;;30.13;21.43;;;12.30;99.90;;;;;;5041953;28;20571;-78
2021/04/30 08:14:56;;;;;;;30.33;20.90;;;12.30;99.90;;;;;;5047434;28;20302;-78
2021/04/30 08:17:42;;;;;;;32.20;22.90;;;12.30;99.90;;;;;;5049596;28;20291;-78
2021/04/30 08:20:27;;;;;;;33.53;22.37;;;12.30;99.90;;;;;;5045632;28;20956;-78
2021/04/30 08:23:13;;;;;;;27.70;21.83;;;12.30;99.90;;;;;;5043810;28;20251;-78
2021/04/30 08:25:59;;;;;;;34.87;22.70;;;12.30;99.90;;;;;;5044253;28;20280;-78
2021/04/30 08:28:44;;;;;;;32.27;22.00;;;12.30;99.90;;;;;;5047494;28;20592;-78
2021/04/30 08:31:28;;;;;;;34.40;23.70;;;12.40;99.90;;;;;;5045508;28;20299;-79
2021/04/30 08:34:14;;;;;;;36.80;24.80;;;12.40;99.90;;;;;;5047872;28;20218;-78
2021/04/30 08:36:59;;;;;;;34.60;23.77;;;12.50;99.90;;;;;;5048815;28;20272;-79
2021/04/30 08:39:43;;;;;;;37.50;25.30;;;12.50;99.90;;;;;;5045469;28;20718;-79
2021/04/30 08:42:30;;;;;;;33.93;21.60;;;12.60;99.90;;;;;;5044703;28;20227;-78
2021/04/30 08:45:16;;;;;;;31.17;24.60;;;12.60;99.90;;;;;;5046159;28;20238;-79
2021/04/30 08:48:02;;;;;;;34.93;25.83;;;12.70;99.90;;;;;;5051115;28;20217;-79
2021/04/30 08:50:48;;;;;;;32.17;24.60;;;12.90;99.90;;;;;;5046519;28;20314;-79
2021/04/30 08:53:33;;;;;;;28.60;22.50;;;13.00;99.90;;;;;;5051205;28;20221;-79
2021/04/30 08:56:18;;;;;;;33.63;22.63;;;13.20;99.90;;;;;;5054171;28;20204;-79
2021/04/30 08:59:06;;;;;;;34.10;23.70;;;13.40;99.90;;;;;;5067357;28;20197;-78
2021/04/30 09:01:51;;;;;;;31.43;23.60;;;13.50;99.90;;;;;;5071363;28;20210;-79
2021/04/30 09:04:36;;;;;;;29.73;22.03;;;13.70;99.90;;;;;;5069192;28;20472;-79
2021/04/30 09:07:24;;;;;;;30.83;22.27;;;13.90;99.90;;;;;;5060353;28;20560;-79
2021/04/30 09:10:12;;;;;;;28.70;22.80;;;14.00;99.90;;;;;;5051696;28;20241;-79
2021/04/30 09:13:06;;;;;;;32.73;23.30;;;14.20;99.90;;;;;;5051408;28;20233;-78
2021/04/30 09:16:04;;;;;;;27.60;20.87;;;14.40;99.90;;;;;;5044738;28;20207;-78
2021/04/30 09:18:50;;;;;;;24.20;20.03;;;14.60;99.90;;;;;;5047201;28;20210;-78
2021/04/30 09:21:35;;;;;;;29.30;21.67;;;14.70;99.90;;;;;;5047469;28;20240;-78
2021/04/30 09:24:24;;;;;;;28.07;19.67;;;14.90;99.90;;;;;;5047130;28;20209;-78
2021/04/30 09:27:09;;;;;;;26.53;21.53;;;15.00;99.90;;;;;;5043425;28;20999;-78
2021/04/30 09:30:10;;;;;;;26.77;18.40;;;15.10;99.90;;;;;;5042197;28;20245;-78
2021/04/30 09:33:10;;;;;;;25.40;19.40;;;15.20;99.90;;;;;;5046899;28;20215;-78
2021/04/30 09:35:56;;;;;;;25.23;19.03;;;15.30;99.90;;;;;;5048059;28;20911;-78
2021/04/30 09:38:44;;;;;;;25.27;17.93;;;15.40;99.90;;;;;;5050014;28;20237;-78
2021/04/30 09:41:29;;;;;;;25.37;18.93;;;15.40;99.90;;;;;;5048194;28;20783;-78
2021/04/30 09:44:14;;;;;;;25.27;19.33;;;15.40;99.90;;;;;;5050094;28;20202;-78
2021/04/30 09:47:12;;;;;;;25.13;19.43;;;15.40;99.90;;;;;;5045142;28;20269;-78
2021/04/30 09:49:58;;;;;;;26.03;19.73;;;15.30;99.90;;;;;;5042616;28;20289;-78
2021/04/30 09:52:53;;;;;;;25.47;19.23;;;15.30;99.90;;;;;;5045502;28;20731;-78
2021/04/30 09:55:44;;;;;;;27.53;22.30;;;15.20;99.90;;;;;;5044097;28;20206;-78
2021/04/30 09:58:44;;;;;;;24.13;19.17;;;15.10;99.90;;;;;;5043333;28;20225;-78
2021/04/30 10:01:29;;;;;;;25.27;18.93;;;14.80;99.90;;;;;;5046591;28;20221;-77
2021/04/30 10:04:23;;;;;;;25.17;19.37;;;14.70;99.90;;;;;;5056818;28;21045;-77
2021/04/30 10:07:08;;;;;;;28.50;20.27;;;14.50;99.90;;;;;;5051155;28;20204;-78
2021/04/30 10:10:09;;;;;;;27.13;19.83;;;14.30;99.90;;;;;;5045081;28;20261;-77
2021/04/30 10:12:57;;;;;;;24.60;20.40;;;14.20;99.90;;;;;;5043240;28;20686;-77
2021/04/30 10:15:43;;;;;;;23.47;17.40;;;14.10;99.90;;;;;;5057791;28;20213;-77
2021/04/30 10:18:28;;;;;;;26.27;21.43;;;14.00;99.90;;;;;;5067153;28;20202;-77
2021/04/30 10:21:14;;;;;;;24.00;18.37;;;13.80;99.90;;;;;;5048636;28;20215;-78
2021/04/30 10:24:00;;;;;;;27.50;22.07;;;13.70;99.90;;;;;;5047748;28;20231;-77
2021/04/30 10:26:45;;;;;;;27.20;21.43;;;13.70;99.90;;;;;;5048550;28;20221;-80
2021/04/30 10:29:32;;;;;;;26.60;21.10;;;13.60;99.90;;;;;;5049219;28;20212;-79
2021/04/30 10:32:20;;;;;;;25.33;20.23;;;13.50;99.90;;;;;;5049934;28;20281;-79
2021/04/30 10:35:09;;;;;;;23.83;19.00;;;13.50;99.90;;;;;;5051881;28;20214;-79
2021/04/30 10:37:58;;;;;;;24.00;19.30;;;13.50;99.90;;;;;;5052281;28;20275;-79
2021/04/30 10:41:10;;;;;;;23.73;18.90;;;13.60;99.90;;;;;;5057431;28;20226;-79
2021/04/30 10:44:15;;;;;;;24.53;19.60;;;13.60;99.90;;;;;;5053003;28;20232;-80
2021/04/30 10:47:25;;;;;;;24.77;19.37;;;13.70;99.90;;;;;;5063446;28;20294;-78
2021/04/30 10:50:19;;;;;;;25.53;18.13;;;13.80;99.90;;;;;;5064363;28;20258;-79
2021/04/30 10:53:25;;;;;;;22.60;17.10;;;13.80;99.90;;;;;;5059259;28;20699;-80
2021/04/30 10:56:26;;;;;;;24.93;20.07;;;13.90;99.90;;;;;;5056264;28;20212;-79
2021/04/30 10:59:24;;;;;;;24.43;19.60;;;14.10;99.90;;;;;;5052533;28;20213;-79
2021/04/30 11:02:10;;;;;;;23.13;18.60;;;14.20;99.90;;;;;;5051327;28;20215;-79
2021/04/30 11:05:21;;;;;;;20.83;17.43;;;14.30;99.90;;;;;;5055785;28;20209;-80
2021/04/30 11:08:06;;;;;;;22.93;18.20;;;14.30;99.90;;;;;;5050100;28;20213;-80
2021/04/30 11:11:03;;;;;;;24.13;18.57;;;14.50;99.90;;;;;;5052504;28;20249;-78
2021/04/30 11:14:22;;;;;;;19.43;16.27;;;14.60;99.90;;;;;;5053937;28;20230;-78
2021/04/30 11:17:07;;;;;;;22.77;17.30;;;14.70;99.90;;;;;;5054844;28;20725;-79
2021/04/30 11:20:11;;;;;;;20.10;16.70;;;14.80;99.90;;;;;;5055531;28;20232;-79
2021/04/30 11:23:14;;;;;;;20.13;15.97;;;14.90;99.90;;;;;;5045184;28;20276;-79
2021/04/30 11:26:05;;;;;;;22.70;18.00;;;15.00;99.90;;;;;;5047264;28;20233;-79
2021/04/30 11:29:11;;;;;;;20.63;15.83;;;15.10;99.90;;;;;;5052067;28;20222;-79
2021/04/30 11:32:20;;;;;;;21.20;15.73;;;15.20;99.90;;;;;;5050996;28;20296;-80
2021/04/30 11:35:06;;;;;;;19.37;16.10;;;15.30;99.90;;;;;;5051685;28;20792;-80
2021/04/30 11:37:53;;;;;;;20.33;16.73;;;15.30;99.90;;;;;;5052366;28;20213;-79
2021/04/30 11:40:39;;;;;;;19.03;15.43;;;15.40;99.90;;;;;;5050924;28;20820;-79
2021/04/30 11:43:24;;;;;;;21.30;15.43;;;15.50;99.90;;;;;;5050486;28;20528;-80
2021/04/30 11:46:09;;;;;;;18.43;15.43;;;15.50;99.90;;;;;;5053909;28;20225;-79
2021/04/30 11:48:54;;;;;;;19.07;15.27;;;15.60;99.90;;;;;;5051783;28;20870;-78
2021/04/30 11:51:43;;;;;;;19.37;14.37;;;15.60;99.90;;;;;;5050465;28;20229;-79
2021/04/30 11:54:30;;;;;;;20.90;15.30;;;15.70;99.90;;;;;;5050062;28;20329;-78
2021/04/30 11:57:16;;;;;;;18.33;13.83;;;15.80;99.90;;;;;;5056209;28;20206;-79
2021/04/30 12:00:03;;;;;;;16.37;12.17;;;15.80;99.90;;;;;;5050942;28;20705;-80
2021/04/30 12:03:03;;;;;;;16.93;12.57;;;16.00;99.90;;;;;;5050446;28;20246;-80
2021/04/30 12:05:50;;;;;;;15.37;12.03;;;16.30;99.90;;;;;;5053383;28;20287;-80
2021/04/30 12:08:35;;;;;;;13.53;10.07;;;16.60;99.90;;;;;;5052937;28;20207;-81
2021/04/30 12:11:24;;;;;;;11.93;8.80;;;16.90;99.90;;;;;;5050868;28;20231;-80
2021/04/30 12:14:09;;;;;;;12.80;7.90;;;17.20;99.90;;;;;;5051414;28;20203;-79
2021/04/30 12:16:57;;;;;;;10.10;7.80;;;17.60;99.90;;;;;;5052962;28;20242;-79
2021/04/30 12:20:00;;;;;;;10.47;8.13;;;18.10;99.90;;;;;;5057597;28;20222;-81
2021/04/30 12:22:55;;;;;;;11.20;8.40;;;18.50;99.90;;;;;;5050825;28;20220;-79
2021/04/30 12:25:43;;;;;;;11.27;8.20;;;18.90;99.90;;;;;;5055050;28;20308;-80
2021/04/30 12:28:30;;;;;;;9.80;8.10;;;19.40;99.90;;;;;;5051489;28;20736;-80
2021/04/30 12:31:15;;;;;;;12.93;7.77;;;19.90;99.90;;;;;;5053250;28;20304;-79
2021/04/30 12:34:00;;;;;;;11.43;8.30;;;20.30;99.90;;;;;;5053399;28;20236;-80
2021/04/30 12:36:45;;;;;;;9.57;7.70;;;20.80;99.90;;;;;;5056696;28;20213;-79
2021/04/30 12:39:31;;;;;;;10.43;7.83;;;21.20;98.60;;;;;;5050307;28;20307;-79
2021/04/30 12:42:15;;;;;;;10.10;7.47;;;21.50;95.10;;;;;;5046799;28;20200;-80
2021/04/30 12:45:00;;;;;;;9.50;7.70;;;21.70;95.40;;;;;;5049364;28;20249;-79
2021/04/30 12:47:47;;;;;;;12.40;8.77;;;21.80;94.10;;;;;;5051962;28;20237;-80
2021/04/30 12:50:32;;;;;;;11.87;8.70;;;21.70;95.90;;;;;;5047540;28;21002;-79
2021/04/30 12:53:17;;;;;;;10.03;8.17;;;21.70;95.00;;;;;;5051230;28;20251;-79
2021/04/30 12:56:03;;;;;;;12.20;9.37;;;21.70;95.10;;;;;;5058753;28;20210;-79
2021/04/30 12:59:03;;;;;;;10.80;8.63;;;21.50;94.20;;;;;;5054034;28;20275;-80
2021/04/30 13:01:51;;;;;;;11.63;8.67;;;21.40;95.00;;;;;;5053219;28;20240;-80
2021/04/30 13:04:43;;;;;;;11.60;8.80;;;21.20;92.60;;;;;;5048785;28;20288;-79
2021/04/30 13:07:29;;;;;;;12.53;9.00;;;21.00;93.50;;;;;;5052055;28;20243;-79
2021/04/30 13:10:22;;;;;;;13.50;9.80;;;20.70;94.10;;;;;;5050775;28;20703;-79
2021/04/30 13:13:07;;;;;;;12.00;9.90;;;20.40;94.90;;;;;;5054487;28;20234;-80
2021/04/30 13:16:01;;;;;;;12.33;10.10;;;20.10;95.20;;;;;;5071203;28;20204;-80
2021/04/30 13:18:45;;;;;;;12.60;10.90;;;19.80;95.30;;;;;;5058057;28;20738;-80
2021/04/30 13:21:32;;;;;;;13.23;11.00;;;19.50;96.00;;;;;;5050117;28;20232;-80
2021/04/30 13:24:22;;;;;;;13.57;11.03;;;19.10;96.60;;;;;;5053345;28;20225;-80
2021/04/30 13:27:09;;;;;;;14.33;11.60;;;18.70;97.50;;;;;;5055755;28;20255;-80
2021/04/30 13:29:55;;;;;;;16.27;12.20;;;18.40;98.80;;;;;;5048694;28;20233;-80
2021/04/30 13:32:40;;;;;;;15.30;12.43;;;18.10;99.90;;;;;;5052689;28;20225;-80
2021/04/30 13:35:27;;;;;;;16.57;13.37;;;17.70;99.90;;;;;;5056759;28;20212;-80
2021/04/30 13:38:19;;;;;;;18.87;13.57;;;17.40;99.90;;;;;;5055741;28;20206;-79
2021/04/30 13:41:12;;;;;;;17.97;13.17;;;17.10;99.90;;;;;;5046647;28;20262;-80
2021/04/30 13:44:15;;;;;;;18.27;14.07;;;16.70;99.90;;;;;;5057249;28;20227;-80
2021/04/30 13:46:59;;;;;;;20.23;14.03;;;16.40;99.90;;;;;;5054453;28;20245;-80
2021/04/30 13:49:53;;;;;;;19.77;15.87;;;16.10;99.90;;;;;;5050972;28;20227;-80
2021/04/30 13:52:38;;;;;;;20.03;15.10;;;15.80;99.90;;;;;;5058499;28;20618;-80
2021/04/30 13:55:24;;;;;;;20.30;14.10;;;15.50;99.90;;;;;;5057458;28;20214;-78
2021/04/30 13:58:09;;;;;;;19.03;13.30;;;15.20;99.90;;;;;;5053404;28;20209;-78
2021/04/30 14:00:54;;;;;;;18.97;14.67;;;15.00;99.90;;;;;;5056885;28;20634;-79
2021/04/30 14:03:38;;;;;;;22.17;16.13;;;14.70;99.90;;;;;;5053245;28;20295;-78
2021/04/30 14:06:23;;;;;;;20.27;16.23;;;14.40;99.90;;;;;;5048497;28;20213;-79
2021/04/30 14:09:08;;;;;;;20.03;16.70;;;14.20;99.90;;;;;;5051758;28;20212;-79
2021/04/30 14:11:55;;;;;;;22.33;16.83;;;13.90;99.90;;;;;;5051596;28;20216;-78
2021/04/30 14:14:40;;;;;;;23.07;18.33;;;13.80;99.90;;;;;;5055264;28;20213;-79